Time;durP1;ratioP1;P1;durP2;ratioP2;P2;SDS_P1;SDS_P2;PMS_P1;PMS_P2;Temp;Humidity;BMP_temperature;BMP_pressure;BME280_temperature;BME280_humidity;BME280_pressure;Samples;Min_cycle;Max_cycle;Signal;HPM_P1;HPM_P2
2022/09/26 00:01:20;;;;;;;61.50;4.93;;;;;;;;;;5072977;28;20444;-65
2022/09/26 00:03:48;;;;;;;60.30;4.73;;;;;;;;;;5072700;28;20451;-65
2022/09/26 00:06:17;;;;;;;60.87;4.17;;;;;;;;;;5072850;28;20447;-65
2022/09/26 00:08:44;;;;;;;59.90;4.87;;;;;;;;;;5072284;28;20451;-65
2022/09/26 00:11:12;;;;;;;59.23;4.00;;;;;;;;;;5072548;28;21010;-66
2022/09/26 00:13:40;;;;;;;59.60;3.70;;;;;;;;;;5072986;28;20447;-65
2022/09/26 00:16:07;;;;;;;60.00;4.70;;;;;;;;;;5072615;28;20451;-66
2022/09/26 00:18:36;;;;;;;59.87;3.97;;;;;;;;;;5072057;28;20989;-66
2022/09/26 00:21:04;;;;;;;60.30;4.30;;;;;;;;;;5072480;28;20451;-66
2022/09/26 00:23:31;;;;;;;60.57;5.00;;;;;;;;;;5072222;28;20454;-66
2022/09/26 00:25:58;;;;;;;59.87;4.23;;;;;;;;;;5072399;28;20797;-65
2022/09/26 00:28:26;;;;;;;59.87;4.23;;;;;;;;;;5072306;28;20451;-64
2022/09/26 00:30:53;;;;;;;60.40;5.10;;;;;;;;;;5072123;28;20479;-65
2022/09/26 00:33:20;;;;;;;59.80;4.27;;;;;;;;;;5072174;28;20455;-66
2022/09/26 00:35:51;;;;;;;61.00;4.80;;;;;;;;;;5072077;28;20471;-67
2022/09/26 00:38:18;;;;;;;60.70;4.80;;;;;;;;;;5072373;28;20816;-66
2022/09/26 00:40:45;;;;;;;61.20;4.90;;;;;;;;;;5071866;28;20459;-67
2022/09/26 00:43:25;;;;;;;59.97;4.57;;;;;;;;;;5072287;28;20443;-66
2022/09/26 00:45:53;;;;;;;59.67;3.50;;;;;;;;;;5071997;28;20466;-66
2022/09/26 00:48:20;;;;;;;59.83;4.03;;;;;;;;;;5071894;28;20478;-66
2022/09/26 00:50:48;;;;;;;59.77;4.67;;;;;;;;;;5071849;28;20487;-65
2022/09/26 00:53:18;;;;;;;60.87;4.10;;;;;;;;;;5072224;28;20506;-65
2022/09/26 00:55:49;;;;;;;60.20;4.83;;;;;;;;;;5071916;28;20986;-66
2022/09/26 00:58:18;;;;;;;60.00;4.20;;;;;;;;;;5071870;28;20458;-65
2022/09/26 01:00:47;;;;;;;60.67;4.50;;;;;;;;;;5071454;28;20450;-66
2022/09/26 01:03:15;;;;;;;59.33;3.60;;;;;;;;;;5072124;28;20553;-65
2022/09/26 01:05:43;;;;;;;61.00;4.70;;;;;;;;;;5071909;28;20468;-66
2022/09/26 01:08:10;;;;;;;62.30;5.97;;;;;;;;;;5071900;28;20458;-66
2022/09/26 01:10:39;;;;;;;60.30;4.17;;;;;;;;;;5071543;28;20923;-65
2022/09/26 01:13:07;;;;;;;63.60;4.10;;;;;;;;;;5071743;28;20446;-67
2022/09/26 01:15:35;;;;;;;59.47;3.67;;;;;;;;;;5071556;28;20836;-67
2022/09/26 01:18:02;;;;;;;61.57;4.50;;;;;;;;;;5071809;28;20447;-65
2022/09/26 01:20:33;;;;;;;63.70;4.50;;;;;;;;;;5071511;28;20439;-65
2022/09/26 01:23:13;;;;;;;60.17;3.87;;;;;;;;;;5071683;28;20449;-66
2022/09/26 01:25:52;;;;;;;60.27;4.00;;;;;;;;;;5071632;28;20465;-65
2022/09/26 01:28:27;;;;;;;59.67;4.03;;;;;;;;;;5071803;28;20453;-65
2022/09/26 01:31:00;;;;;;;62.70;4.63;;;;;;;;;;5071280;28;21032;-65
2022/09/26 01:33:39;;;;;;;62.77;4.30;;;;;;;;;;5071565;28;20447;-65
2022/09/26 01:36:14;;;;;;;60.00;4.33;;;;;;;;;;5072145;28;20920;-65
2022/09/26 01:38:47;;;;;;;61.33;4.23;;;;;;;;;;5075243;28;20447;-65
2022/09/26 01:41:23;;;;;;;59.70;3.97;;;;;;;;;;5075569;28;21002;-65
2022/09/26 01:43:55;;;;;;;59.87;4.27;;;;;;;;;;5075403;28;20967;-65
2022/09/26 01:46:31;;;;;;;59.07;3.77;;;;;;;;;;5073850;28;20842;-65
2022/09/26 01:49:02;;;;;;;59.40;4.10;;;;;;;;;;5075268;28;20451;-66
2022/09/26 01:51:33;;;;;;;59.57;3.40;;;;;;;;;;5075299;28;20485;-66
2022/09/26 01:54:03;;;;;;;61.07;4.53;;;;;;;;;;5075503;28;20459;-66
2022/09/26 01:56:32;;;;;;;59.90;4.50;;;;;;;;;;5075188;28;20463;-65
2022/09/26 01:59:00;;;;;;;62.00;4.50;;;;;;;;;;5074647;28;20932;-65
2022/09/26 02:01:31;;;;;;;58.67;2.90;;;;;;;;;;5075320;28;20439;-67
2022/09/26 02:04:01;;;;;;;61.30;4.20;;;;;;;;;;5075180;28;20469;-66
2022/09/26 02:06:31;;;;;;;58.90;3.07;;;;;;;;;;5075043;28;20447;-65
2022/09/26 02:08:59;;;;;;;59.67;4.57;;;;;;;;;;5074662;28;20443;-66
2022/09/26 02:11:27;;;;;;;59.73;4.07;;;;;;;;;;5075001;28;20487;-66
2022/09/26 02:13:56;;;;;;;60.30;4.87;;;;;;;;;;5074940;28;20447;-66
2022/09/26 02:16:25;;;;;;;60.10;4.67;;;;;;;;;;5074835;28;20447;-65
2022/09/26 02:18:57;;;;;;;59.20;3.43;;;;;;;;;;5074502;28;20455;-65
2022/09/26 02:21:25;;;;;;;60.40;4.63;;;;;;;;;;5074700;28;20449;-66
2022/09/26 02:23:53;;;;;;;62.10;4.63;;;;;;;;;;5074905;28;20443;-68
2022/09/26 02:26:20;;;;;;;60.03;4.53;;;;;;;;;;5074890;28;20599;-65
2022/09/26 02:28:47;;;;;;;60.97;4.73;;;;;;;;;;5074324;28;20451;-65
2022/09/26 02:31:19;;;;;;;60.07;3.77;;;;;;;;;;5074624;28;20489;-67
2022/09/26 02:33:47;;;;;;;59.90;3.60;;;;;;;;;;5074247;28;20458;-66
2022/09/26 02:36:16;;;;;;;60.10;5.10;;;;;;;;;;5074717;28;20473;-65
2022/09/26 02:38:43;;;;;;;60.27;4.47;;;;;;;;;;5074062;28;20947;-66
2022/09/26 02:41:14;;;;;;;58.80;3.53;;;;;;;;;;5074567;28;20444;-65
2022/09/26 02:43:49;;;;;;;61.03;4.57;;;;;;;;;;5074719;28;20447;-65
2022/09/26 02:46:29;;;;;;;59.30;4.57;;;;;;;;;;5074324;28;20473;-65
2022/09/26 02:49:04;;;;;;;61.10;4.10;;;;;;;;;;5073908;28;20448;-65
2022/09/26 02:51:37;;;;;;;59.70;4.60;;;;;;;;;;5074319;28;20479;-66
2022/09/26 02:54:10;;;;;;;60.20;4.37;;;;;;;;;;5074246;28;20469;-66
2022/09/26 02:56:41;;;;;;;60.13;4.13;;;;;;;;;;5074058;28;20448;-66
2022/09/26 02:59:10;;;;;;;60.53;5.30;;;;;;;;;;5073972;28;20457;-65
2022/09/26 03:01:41;;;;;;;60.30;4.93;;;;;;;;;;5074409;28;20450;-65
2022/09/26 03:04:13;;;;;;;58.50;3.10;;;;;;;;;;5074016;28;20459;-66
2022/09/26 03:06:43;;;;;;;58.70;4.37;;;;;;;;;;5074007;28;20550;-66
2022/09/26 03:09:11;;;;;;;73.20;5.40;;;;;;;;;;5073661;28;20447;-66
2022/09/26 03:11:39;;;;;;;59.17;3.87;;;;;;;;;;5074307;28;20487;-65
2022/09/26 03:14:08;;;;;;;61.00;4.17;;;;;;;;;;5074489;28;20835;-65
2022/09/26 03:16:36;;;;;;;59.73;4.00;;;;;;;;;;5074624;28;20469;-66
2022/09/26 03:19:06;;;;;;;61.53;5.17;;;;;;;;;;5073414;28;20455;-66
2022/09/26 03:21:33;;;;;;;59.27;4.20;;;;;;;;;;5073709;28;20447;-65
2022/09/26 03:24:01;;;;;;;59.57;4.30;;;;;;;;;;5073779;28;20884;-66
2022/09/26 03:26:30;;;;;;;62.17;3.90;;;;;;;;;;5073710;28;20452;-65
2022/09/26 03:28:57;;;;;;;61.13;4.80;;;;;;;;;;5073285;28;20955;-65
2022/09/26 03:31:24;;;;;;;60.23;4.10;;;;;;;;;;5073649;28;20506;-67
2022/09/26 03:33:51;;;;;;;60.83;3.63;;;;;;;;;;5073956;28;20513;-66
2022/09/26 03:36:19;;;;;;;59.37;4.03;;;;;;;;;;5074435;28;20451;-66
2022/09/26 03:38:46;;;;;;;60.50;4.07;;;;;;;;;;5073795;28;20535;-65
2022/09/26 03:41:14;;;;;;;61.00;5.07;;;;;;;;;;5074081;28;20448;-66
2022/09/26 03:43:42;;;;;;;59.13;3.63;;;;;;;;;;5073843;28;20439;-66
2022/09/26 03:46:11;;;;;;;59.97;4.73;;;;;;;;;;5073601;28;20960;-66
2022/09/26 03:48:38;;;;;;;59.10;3.60;;;;;;;;;;5072850;28;20443;-65
2022/09/26 03:51:06;;;;;;;60.60;4.20;;;;;;;;;;5073559;28;20858;-65
2022/09/26 03:53:33;;;;;;;61.20;5.43;;;;;;;;;;5073933;28;20538;-65
2022/09/26 03:56:04;;;;;;;61.67;4.60;;;;;;;;;;5073713;28;20476;-68
2022/09/26 03:58:33;;;;;;;59.57;3.80;;;;;;;;;;5073401;28;20810;-68
2022/09/26 04:01:03;;;;;;;59.93;3.60;;;;;;;;;;5073517;28;20522;-66
2022/09/26 04:03:32;;;;;;;59.00;3.47;;;;;;;;;;5073272;28;20451;-66
2022/09/26 04:05:59;;;;;;;59.77;4.80;;;;;;;;;;5073646;28;20467;-66
2022/09/26 04:08:27;;;;;;;58.97;3.67;;;;;;;;;;5073610;28;20448;-65
2022/09/26 04:10:54;;;;;;;63.70;5.10;;;;;;;;;;5073271;28;20544;-66
2022/09/26 04:13:21;;;;;;;60.00;4.13;;;;;;;;;;5073517;28;20884;-65
2022/09/26 04:15:56;;;;;;;59.13;3.43;;;;;;;;;;5073649;28;20475;-66
2022/09/26 04:18:23;;;;;;;60.70;4.80;;;;;;;;;;5073306;28;20447;-65
2022/09/26 04:20:50;;;;;;;63.80;5.17;;;;;;;;;;5073004;28;20522;-66
2022/09/26 04:23:18;;;;;;;58.60;3.40;;;;;;;;;;5073209;28;20505;-65
2022/09/26 04:25:45;;;;;;;58.73;3.23;;;;;;;;;;5072921;28;20467;-66
2022/09/26 04:28:12;;;;;;;60.20;3.80;;;;;;;;;;5072744;28;20479;-66
2022/09/26 04:30:39;;;;;;;61.80;3.80;;;;;;;;;;5072776;28;20811;-65
2022/09/26 04:33:08;;;;;;;62.53;3.80;;;;;;;;;;5073085;28;20497;-66
2022/09/26 04:35:35;;;;;;;59.10;3.50;;;;;;;;;;5072518;28;20859;-66
2022/09/26 04:38:03;;;;;;;59.83;3.97;;;;;;;;;;5072701;28;20545;-66
2022/09/26 04:40:30;;;;;;;61.53;4.90;;;;;;;;;;5072502;28;21009;-66
2022/09/26 04:42:58;;;;;;;59.07;4.30;;;;;;;;;;5072415;28;20443;-68
2022/09/26 04:45:25;;;;;;;60.00;3.77;;;;;;;;;;5072171;28;21045;-65
2022/09/26 04:47:52;;;;;;;61.50;4.60;;;;;;;;;;5072221;28;20442;-65
2022/09/26 04:50:21;;;;;;;61.13;5.23;;;;;;;;;;5071863;28;20447;-65
2022/09/26 04:52:48;;;;;;;59.97;4.33;;;;;;;;;;5072026;28;20486;-67
2022/09/26 04:55:15;;;;;;;61.00;4.37;;;;;;;;;;5071839;28;20481;-65
2022/09/26 04:57:42;;;;;;;59.50;3.83;;;;;;;;;;5072147;28;20455;-66
2022/09/26 05:00:13;;;;;;;59.07;3.70;;;;;;;;;;5071835;28;20448;-65
2022/09/26 05:02:40;;;;;;;60.57;5.40;;;;;;;;;;5072094;28;20534;-66
2022/09/26 05:05:08;;;;;;;59.00;3.40;;;;;;;;;;5071563;28;20476;-65
2022/09/26 05:07:41;;;;;;;59.20;3.57;;;;;;;;;;5071902;28;20533;-65
2022/09/26 05:10:09;;;;;;;59.07;3.90;;;;;;;;;;5071399;28;20458;-66
2022/09/26 05:12:38;;;;;;;59.53;3.67;;;;;;;;;;5071894;28;20792;-65
2022/09/26 05:15:07;;;;;;;59.47;3.97;;;;;;;;;;5071653;28;21022;-67
2022/09/26 05:17:35;;;;;;;59.67;4.27;;;;;;;;;;5071797;28;20886;-65
2022/09/26 05:20:02;;;;;;;59.47;3.77;;;;;;;;;;5071263;28;20459;-65
2022/09/26 05:22:30;;;;;;;58.90;3.97;;;;;;;;;;5071845;28;20450;-66
2022/09/26 05:27:43;;;;;;;59.50;3.73;;;;;;;;;;5050326;28;20431;-66
2022/09/26 05:30:11;;;;;;;62.67;4.20;;;;;;;;;;5071394;28;21042;-65
2022/09/26 05:32:39;;;;;;;61.67;4.07;;;;;;;;;;5071589;28;20483;-65
2022/09/26 05:35:06;;;;;;;59.60;3.57;;;;;;;;;;5071226;28;20486;-65
2022/09/26 05:37:33;;;;;;;58.80;4.00;;;;;;;;;;5071775;28;20451;-67
2022/09/26 05:42:47;;;;;;;59.07;3.70;;;;;;;;;;5071457;28;20523;-65
2022/09/26 05:45:15;;;;;;;58.90;3.40;;;;;;;;;;5071407;28;20467;-66
2022/09/26 05:47:42;;;;;;;61.23;4.43;;;;;;;;;;5071178;28;20451;-66
2022/09/26 05:50:09;;;;;;;66.20;3.60;;;;;;;;;;5071225;28;20451;-66
2022/09/26 05:52:36;;;;;;;59.70;4.40;;;;;;;;;;5071466;28;20526;-65
2022/09/26 05:55:06;;;;;;;58.80;3.50;;;;;;;;;;5071357;28;20471;-67
2022/09/26 05:57:33;;;;;;;58.80;3.30;;;;;;;;;;5071312;28;21026;-65
2022/09/26 06:00:01;;;;;;;59.03;3.57;;;;;;;;;;5070894;28;20444;-66
2022/09/26 06:02:28;;;;;;;59.37;4.03;;;;;;;;;;5071280;28;20451;-66
2022/09/26 06:04:56;;;;;;;60.30;3.80;;;;;;;;;;5071372;28;20463;-65
2022/09/26 06:07:23;;;;;;;60.47;5.67;;;;;;;;;;5071381;28;20505;-66
2022/09/26 06:09:50;;;;;;;62.30;5.43;;;;;;;;;;5070898;28;20458;-67
2022/09/26 06:12:20;;;;;;;59.00;3.47;;;;;;;;;;5071199;28;20506;-65
2022/09/26 06:14:47;;;;;;;59.40;3.70;;;;;;;;;;5071032;28;20475;-66
2022/09/26 06:17:14;;;;;;;59.00;3.40;;;;;;;;;;5071381;28;20451;-66
2022/09/26 06:19:41;;;;;;;60.10;4.33;;;;;;;;;;5070772;28;20447;-66
2022/09/26 06:22:08;;;;;;;59.17;3.80;;;;;;;;;;5071983;28;20822;-65
2022/09/26 06:24:35;;;;;;;63.73;4.63;;;;;;;;;;5074823;28;20471;-66
2022/09/26 06:27:02;;;;;;;59.17;3.73;;;;;;;;;;5074708;28;20443;-65
2022/09/26 06:29:31;;;;;;;59.77;4.07;;;;;;;;;;5074574;28;20447;-66
2022/09/26 06:31:58;;;;;;;64.87;5.00;;;;;;;;;;5074730;28;20486;-66
2022/09/26 06:34:25;;;;;;;59.07;3.60;;;;;;;;;;5074504;28;20493;-65
2022/09/26 06:36:52;;;;;;;60.13;5.07;;;;;;;;;;5073417;28;20447;-70
2022/09/26 06:39:20;;;;;;;61.80;4.83;;;;;;;;;;5072085;28;20522;-67
2022/09/26 06:41:48;;;;;;;62.07;5.13;;;;;;;;;;5072619;28;20475;-68
2022/09/26 06:44:15;;;;;;;59.40;4.60;;;;;;;;;;5074166;28;20542;-69
2022/09/26 06:46:44;;;;;;;59.47;3.80;;;;;;;;;;5072139;28;20455;-66
2022/09/26 06:49:11;;;;;;;60.40;4.40;;;;;;;;;;5072303;28;20968;-66
2022/09/26 06:51:38;;;;;;;60.10;4.30;;;;;;;;;;5073115;28;20447;-66
2022/09/26 06:54:05;;;;;;;59.67;4.10;;;;;;;;;;5073048;28;20467;-66
2022/09/26 06:56:32;;;;;;;59.30;4.10;;;;;;;;;;5072781;28;20449;-66
2022/09/26 06:58:59;;;;;;;59.07;4.47;;;;;;;;;;5072587;28;20454;-69
2022/09/26 07:01:26;;;;;;;59.10;3.73;;;;;;;;;;5072963;28;21138;-66
2022/09/26 07:03:55;;;;;;;59.17;4.30;;;;;;;;;;5072917;28;20452;-68
2022/09/26 07:06:22;;;;;;;60.50;4.73;;;;;;;;;;5073185;28;20455;-66
2022/09/26 07:08:50;;;;;;;60.27;5.10;;;;;;;;;;5072383;28;20462;-66
2022/09/26 07:11:18;;;;;;;59.87;4.10;;;;;;;;;;5073352;28;20451;-66
2022/09/26 07:13:45;;;;;;;60.90;4.57;;;;;;;;;;5072864;28;20518;-66
2022/09/26 07:16:12;;;;;;;58.90;4.00;;;;;;;;;;5073132;28;20872;-68
2022/09/26 07:18:39;;;;;;;59.07;3.73;;;;;;;;;;5071386;28;20517;-66
2022/09/26 07:21:08;;;;;;;58.87;3.80;;;;;;;;;;5072663;28;20476;-66
2022/09/26 07:23:35;;;;;;;58.77;4.47;;;;;;;;;;5073160;28;20448;-66
2022/09/26 07:26:02;;;;;;;60.20;4.37;;;;;;;;;;5072659;28;21001;-66
2022/09/26 07:28:30;;;;;;;62.53;6.03;;;;;;;;;;5072165;28;20456;-69
2022/09/26 07:30:57;;;;;;;59.30;3.97;;;;;;;;;;5072277;28;20480;-66
2022/09/26 07:33:24;;;;;;;59.20;4.30;;;;;;;;;;5071890;28;21067;-66
2022/09/26 07:35:51;;;;;;;60.57;4.50;;;;;;;;;;5072338;28;20470;-66
2022/09/26 07:38:20;;;;;;;64.50;4.50;;;;;;;;;;5072776;28;20452;-69
2022/09/26 07:40:52;;;;;;;60.80;4.03;;;;;;;;;;5072229;28;20467;-66
2022/09/26 07:43:19;;;;;;;59.10;3.60;;;;;;;;;;5072919;28;20876;-66
2022/09/26 07:51:16;;;;;;;59.40;3.20;;;;;;;;;;5070582;28;20442;-66
2022/09/26 07:53:45;;;;;;;58.57;4.00;;;;;;;;;;5072147;28;20685;-67
2022/09/26 07:56:12;;;;;;;59.83;3.93;;;;;;;;;;5072532;28;20974;-67
2022/09/26 07:58:40;;;;;;;59.10;3.60;;;;;;;;;;5071876;28;20447;-66
2022/09/26 08:01:10;;;;;;;57.93;3.20;;;;;;;;;;5072539;28;20799;-66
2022/09/26 08:03:37;;;;;;;58.70;3.57;;;;;;;;;;5072614;28;20455;-66
2022/09/26 08:06:05;;;;;;;59.27;3.80;;;;;;;;;;5071925;28;20523;-66
2022/09/26 08:08:32;;;;;;;58.90;3.20;;;;;;;;;;5071803;28;21001;-67
2022/09/26 08:11:01;;;;;;;57.77;2.50;;;;;;;;;;5072186;28;21047;-66
2022/09/26 08:13:30;;;;;;;58.17;2.90;;;;;;;;;;5072005;28;20870;-67
2022/09/26 08:16:02;;;;;;;58.70;3.10;;;;;;;;;;5072381;28;20512;-66
2022/09/26 08:18:29;;;;;;;58.07;3.20;;;;;;;;;;5071936;28;20483;-66
2022/09/26 08:20:56;;;;;;;58.20;2.90;;;;;;;;;;5071890;28;20445;-65
2022/09/26 08:23:24;;;;;;;58.50;3.00;;;;;;;;;;5070050;28;20946;-66
2022/09/26 08:25:51;;;;;;;59.30;3.27;;;;;;;;;;5071176;28;20484;-67
2022/09/26 08:28:19;;;;;;;58.50;3.00;;;;;;;;;;5071800;28;20455;-66
2022/09/26 08:30:46;;;;;;;58.10;3.00;;;;;;;;;;5071502;28;20950;-66
2022/09/26 08:33:13;;;;;;;58.60;3.10;;;;;;;;;;5071647;28;20485;-66
2022/09/26 08:35:40;;;;;;;57.67;2.43;;;;;;;;;;5071976;28;20478;-67
2022/09/26 08:38:08;;;;;;;58.40;2.73;;;;;;;;;;5071491;28;20515;-66
2022/09/26 08:40:39;;;;;;;58.57;2.80;;;;;;;;;;5071040;28;20478;-66
2022/09/26 08:43:08;;;;;;;58.47;2.90;;;;;;;;;;5072024;28;20836;-66
2022/09/26 08:48:32;;;;;;;60.00;3.00;;;;;;;;;;5071312;28;20513;-66
2022/09/26 08:51:01;;;;;;;58.73;2.93;;;;;;;;;;5071356;28;20835;-67
2022/09/26 08:53:30;;;;;;;58.53;2.87;;;;;;;;;;5071332;28;20482;-66
2022/09/26 08:55:58;;;;;;;58.50;3.10;;;;;;;;;;5068830;28;20483;-66
2022/09/26 08:58:27;;;;;;;66.00;3.40;;;;;;;;;;5071283;28;20450;-67
2022/09/26 09:00:59;;;;;;;58.87;3.17;;;;;;;;;;5070884;28;20456;-66
2022/09/26 09:03:29;;;;;;;58.60;2.73;;;;;;;;;;5071411;28;20446;-67
2022/09/26 09:06:00;;;;;;;58.20;2.80;;;;;;;;;;5071204;28;20481;-68
2022/09/26 09:08:32;;;;;;;57.83;2.90;;;;;;;;;;5070884;28;20488;-69
2022/09/26 09:11:04;;;;;;;60.50;3.03;;;;;;;;;;5071239;28;20821;-66
2022/09/26 09:13:38;;;;;;;58.30;3.00;;;;;;;;;;5071100;28;20485;-69
2022/09/26 09:16:18;;;;;;;58.33;2.73;;;;;;;;;;5071499;28;20874;-68
2022/09/26 09:18:52;;;;;;;58.20;2.90;;;;;;;;;;5070667;28;20958;-67
2022/09/26 09:21:26;;;;;;;59.00;3.00;;;;;;;;;;5071147;28;20945;-66
2022/09/26 09:23:59;;;;;;;58.10;2.63;;;;;;;;;;5071801;28;20453;-66
2022/09/26 09:26:29;;;;;;;57.97;2.57;;;;;;;;;;5069067;28;20480;-67
2022/09/26 09:29:05;;;;;;;57.87;2.50;;;;;;;;;;5070463;28;21034;-66
2022/09/26 09:31:37;;;;;;;58.50;2.90;;;;;;;;;;5070839;28;20474;-68
2022/09/26 09:34:05;;;;;;;57.97;2.60;;;;;;;;;;5070902;28;20504;-69
2022/09/26 09:36:34;;;;;;;57.90;2.43;;;;;;;;;;5071283;28;20943;-67
2022/09/26 09:39:03;;;;;;;57.77;2.53;;;;;;;;;;5070545;28;20451;-67
2022/09/26 09:41:34;;;;;;;58.10;2.43;;;;;;;;;;5071127;28;20469;-67
2022/09/26 09:44:04;;;;;;;62.60;3.20;;;;;;;;;;5071113;28;20479;-67
2022/09/26 09:46:36;;;;;;;58.17;2.53;;;;;;;;;;5070936;28;20550;-66
2022/09/26 09:49:15;;;;;;;58.10;2.10;;;;;;;;;;5069937;28;20451;-66
2022/09/26 09:51:47;;;;;;;58.20;2.50;;;;;;;;;;5070626;28;20456;-67
2022/09/26 09:54:19;;;;;;;57.57;2.17;;;;;;;;;;5070759;28;20991;-67
2022/09/26 09:56:51;;;;;;;62.80;3.00;;;;;;;;;;5071124;28;20447;-67
2022/09/26 09:59:37;;;;;;;58.20;2.90;;;;;;;;;;5072543;28;20524;-66
2022/09/26 10:02:14;;;;;;;57.90;2.43;;;;;;;;;;5074793;28;20451;-66
2022/09/26 10:04:45;;;;;;;58.47;2.60;;;;;;;;;;5074583;28;20463;-67
2022/09/26 10:07:12;;;;;;;57.70;2.50;;;;;;;;;;5074305;28;20454;-67
2022/09/26 10:09:40;;;;;;;58.00;2.50;;;;;;;;;;5073411;28;20447;-66
2022/09/26 10:12:10;;;;;;;58.37;2.70;;;;;;;;;;5074499;28;20554;-67
2022/09/26 10:14:41;;;;;;;57.57;2.10;;;;;;;;;;5074797;28;20490;-66
2022/09/26 10:17:20;;;;;;;57.90;2.70;;;;;;;;;;5074949;28;20450;-67
2022/09/26 10:19:47;;;;;;;57.50;2.20;;;;;;;;;;5074135;28;20435;-67
2022/09/26 10:22:17;;;;;;;57.80;2.40;;;;;;;;;;5074243;28;20451;-66
2022/09/26 10:24:46;;;;;;;57.90;2.50;;;;;;;;;;5074133;28;20983;-66
2022/09/26 10:27:15;;;;;;;58.00;2.30;;;;;;;;;;5073853;28;20471;-69
2022/09/26 10:29:44;;;;;;;58.40;2.70;;;;;;;;;;5073383;28;20482;-66
2022/09/26 10:32:11;;;;;;;58.90;3.97;;;;;;;;;;5074426;28;20454;-66
2022/09/26 10:34:40;;;;;;;57.93;2.57;;;;;;;;;;5072088;28;20498;-68
2022/09/26 10:37:20;;;;;;;58.33;2.60;;;;;;;;;;5074009;28;20454;-66
2022/09/26 10:42:38;;;;;;;58.20;2.97;;;;;;;;;;5073836;28;20430;-69
2022/09/26 10:45:11;;;;;;;58.17;2.63;;;;;;;;;;5073816;28;20467;-66
2022/09/26 10:47:39;;;;;;;57.70;2.30;;;;;;;;;;5073388;28;20868;-68
2022/09/26 10:50:10;;;;;;;58.17;3.00;;;;;;;;;;5072900;28;20447;-67
2022/09/26 10:52:39;;;;;;;57.80;2.87;;;;;;;;;;5074265;28;20447;-67
2022/09/26 10:55:08;;;;;;;58.37;2.60;;;;;;;;;;5073721;28;20487;-69
2022/09/26 10:57:38;;;;;;;57.67;2.30;;;;;;;;;;5073671;28;20494;-65
2022/09/26 11:00:07;;;;;;;57.60;2.33;;;;;;;;;;5072968;28;20874;-66
2022/09/26 11:02:36;;;;;;;57.43;2.50;;;;;;;;;;5073519;28;20495;-69
2022/09/26 11:07:52;;;;;;;57.80;2.27;;;;;;;;;;5070579;28;20442;-67
2022/09/26 11:10:24;;;;;;;57.80;2.40;;;;;;;;;;5072275;28;20456;-66
2022/09/26 11:12:59;;;;;;;57.80;2.50;;;;;;;;;;5073737;28;20450;-66
2022/09/26 11:15:27;;;;;;;57.70;2.47;;;;;;;;;;5073282;28;20800;-66
2022/09/26 11:17:55;;;;;;;57.50;2.70;;;;;;;;;;5070896;28;20456;-66
2022/09/26 11:20:27;;;;;;;57.57;2.23;;;;;;;;;;5073154;28;20447;-65
2022/09/26 11:23:01;;;;;;;57.80;2.30;;;;;;;;;;5073188;28;20448;-66
2022/09/26 11:25:29;;;;;;;59.10;2.90;;;;;;;;;;5073021;28;20967;-66
2022/09/26 11:28:06;;;;;;;58.50;2.47;;;;;;;;;;5072893;28;20452;-66
2022/09/26 11:30:36;;;;;;;57.70;2.50;;;;;;;;;;5072172;28;20455;-66
2022/09/26 11:33:07;;;;;;;57.77;2.50;;;;;;;;;;5073562;28;20459;-67
2022/09/26 11:35:42;;;;;;;57.77;2.30;;;;;;;;;;5072524;28;20570;-66
2022/09/26 11:38:14;;;;;;;58.10;2.47;;;;;;;;;;5073364;28;20820;-66
2022/09/26 11:40:49;;;;;;;57.77;2.20;;;;;;;;;;5072514;28;20530;-68
2022/09/26 11:43:23;;;;;;;57.67;2.30;;;;;;;;;;5072756;28;20443;-66
2022/09/26 11:45:56;;;;;;;57.70;2.60;;;;;;;;;;5072814;28;20475;-66
2022/09/26 11:48:41;;;;;;;57.70;2.77;;;;;;;;;;5071311;28;20451;-70
2022/09/26 11:51:13;;;;;;;57.97;2.20;;;;;;;;;;5051793;28;20448;-66
2022/09/26 11:53:54;;;;;;;57.53;2.10;;;;;;;;;;5052744;28;20484;-67
2022/09/26 11:56:29;;;;;;;58.87;2.60;;;;;;;;;;5052416;28;20454;-64
2022/09/26 11:59:01;;;;;;;57.67;2.33;;;;;;;;;;5052580;28;20494;-68
2022/09/26 12:01:34;;;;;;;57.87;2.53;;;;;;;;;;5052475;28;20448;-68
2022/09/26 12:04:10;;;;;;;57.43;2.30;;;;;;;;;;5052377;28;20514;-67
2022/09/26 12:06:43;;;;;;;57.47;2.20;;;;;;;;;;5051392;28;20494;-66
2022/09/26 12:09:17;;;;;;;57.27;2.60;;;;;;;;;;5051810;28;20460;-65
2022/09/26 12:11:52;;;;;;;57.43;2.10;;;;;;;;;;5051958;28;20451;-64
2022/09/26 12:14:34;;;;;;;57.80;2.30;;;;;;;;;;5052265;28;20893;-67
2022/09/26 12:17:04;;;;;;;60.43;2.40;;;;;;;;;;5051882;28;20514;-67
2022/09/26 12:19:35;;;;;;;57.90;2.10;;;;;;;;;;5052207;28;20452;-66
2022/09/26 12:24:54;;;;;;;58.00;2.23;;;;;;;;;;5071865;28;20463;-67
2022/09/26 12:27:24;;;;;;;57.77;2.40;;;;;;;;;;5071650;28;20455;-66
2022/09/26 12:29:58;;;;;;;57.67;2.40;;;;;;;;;;5070951;28;20466;-68
2022/09/26 12:32:32;;;;;;;57.27;2.20;;;;;;;;;;5071551;28;20918;-67
2022/09/26 12:35:07;;;;;;;57.53;2.27;;;;;;;;;;5072164;28;20501;-66
2022/09/26 12:37:42;;;;;;;57.67;2.17;;;;;;;;;;5071789;28;20474;-66
2022/09/26 12:40:18;;;;;;;59.13;2.30;;;;;;;;;;5071401;28;20455;-66
2022/09/26 12:42:53;;;;;;;57.27;2.30;;;;;;;;;;5071591;28;20965;-66
2022/09/26 12:45:28;;;;;;;58.57;2.20;;;;;;;;;;5071514;28;20463;-66
2022/09/26 12:48:08;;;;;;;57.77;2.67;;;;;;;;;;5071453;28;20461;-67
2022/09/26 12:50:40;;;;;;;57.07;2.20;;;;;;;;;;5070729;28;20454;-64
2022/09/26 12:53:26;;;;;;;57.07;2.30;;;;;;;;;;5069241;28;20464;-66
2022/09/26 12:56:02;;;;;;;57.23;2.00;;;;;;;;;;5071637;28;20531;-64
2022/09/26 12:58:34;;;;;;;57.37;2.10;;;;;;;;;;5071111;28;20948;-67
2022/09/26 13:01:07;;;;;;;57.60;2.00;;;;;;;;;;5071277;28;20447;-66
2022/09/26 13:03:50;;;;;;;57.60;2.20;;;;;;;;;;5071453;28;20447;-67
2022/09/26 13:06:32;;;;;;;57.37;2.20;;;;;;;;;;5071354;28;20819;-66
2022/09/26 13:09:04;;;;;;;57.37;2.10;;;;;;;;;;5058157;28;20459;-66
2022/09/26 13:11:36;;;;;;;57.17;2.20;;;;;;;;;;5070624;28;20459;-66
2022/09/26 13:14:13;;;;;;;58.87;2.60;;;;;;;;;;5071057;28;20499;-65
2022/09/26 13:16:48;;;;;;;57.97;2.40;;;;;;;;;;5071363;28;20455;-66
2022/09/26 13:19:21;;;;;;;57.37;2.03;;;;;;;;;;5070836;28;20935;-65
2022/09/26 13:21:53;;;;;;;57.90;2.20;;;;;;;;;;5070849;28;20997;-67
2022/09/26 13:24:22;;;;;;;57.17;2.07;;;;;;;;;;5069030;28;20475;-66
2022/09/26 13:26:53;;;;;;;58.00;2.53;;;;;;;;;;5071019;28;20973;-68
2022/09/26 13:29:22;;;;;;;57.53;2.10;;;;;;;;;;5070484;28;20543;-66
2022/09/26 13:31:54;;;;;;;57.90;2.60;;;;;;;;;;5070655;28;20478;-66
2022/09/26 13:34:23;;;;;;;57.50;2.73;;;;;;;;;;5074402;28;20499;-66
2022/09/26 13:36:51;;;;;;;57.70;2.27;;;;;;;;;;5075346;28;20525;-68
2022/09/26 13:39:23;;;;;;;58.20;2.30;;;;;;;;;;5075177;28;20454;-66
2022/09/26 13:41:56;;;;;;;57.80;2.20;;;;;;;;;;5075310;28;20466;-68
2022/09/26 13:44:28;;;;;;;57.80;2.20;;;;;;;;;;5075228;28;20482;-66
2022/09/26 13:47:02;;;;;;;59.03;2.40;;;;;;;;;;5075048;28;20454;-69
2022/09/26 13:49:39;;;;;;;58.00;2.50;;;;;;;;;;5074756;28;21022;-68
2022/09/26 13:52:11;;;;;;;57.53;2.20;;;;;;;;;;5074493;28;20451;-66
2022/09/26 13:54:49;;;;;;;57.47;2.43;;;;;;;;;;5074495;28;20856;-66
2022/09/26 13:57:30;;;;;;;57.47;2.40;;;;;;;;;;5072679;28;20458;-66
2022/09/26 13:59:58;;;;;;;57.47;1.90;;;;;;;;;;5074758;28;20451;-67
2022/09/26 14:02:27;;;;;;;58.03;2.40;;;;;;;;;;5074805;28;20807;-66
2022/09/26 14:05:14;;;;;;;57.73;2.10;;;;;;;;;;5074478;28;20522;-66
2022/09/26 14:10:36;;;;;;;60.27;2.20;;;;;;;;;;5073657;28;20793;-66
2022/09/26 14:13:17;;;;;;;57.33;2.00;;;;;;;;;;5074285;28;20451;-66
2022/09/26 14:16:04;;;;;;;57.57;2.23;;;;;;;;;;5074023;28;20869;-66
2022/09/26 14:18:39;;;;;;;59.07;2.30;;;;;;;;;;5074546;28;20443;-66
2022/09/26 14:21:08;;;;;;;58.10;2.80;;;;;;;;;;5074632;28;20451;-67
2022/09/26 14:23:36;;;;;;;57.50;2.17;;;;;;;;;;5074265;28;20482;-66
2022/09/26 14:26:07;;;;;;;57.43;2.13;;;;;;;;;;5073747;28;20520;-72
2022/09/26 14:28:37;;;;;;;57.57;2.23;;;;;;;;;;5072761;28;20462;-66
2022/09/26 14:31:22;;;;;;;57.23;2.20;;;;;;;;;;5073380;28;20939;-67
2022/09/26 14:33:50;;;;;;;59.47;2.63;;;;;;;;;;5073786;28;20485;-66
2022/09/26 14:36:18;;;;;;;57.57;2.37;;;;;;;;;;5073764;28;20494;-64
2022/09/26 14:38:47;;;;;;;57.70;2.43;;;;;;;;;;5073371;28;20447;-64
2022/09/26 14:41:18;;;;;;;57.30;2.20;;;;;;;;;;5074025;28;20947;-66
2022/09/26 14:43:48;;;;;;;57.80;2.50;;;;;;;;;;5073409;28;20443;-65
2022/09/26 14:46:17;;;;;;;57.90;2.27;;;;;;;;;;5073802;28;21059;-64
2022/09/26 14:48:45;;;;;;;57.70;2.10;;;;;;;;;;5073370;28;20490;-66
2022/09/26 14:51:26;;;;;;;57.57;2.10;;;;;;;;;;5073142;28;20486;-69
2022/09/26 14:53:57;;;;;;;57.80;2.30;;;;;;;;;;5073446;28;20527;-66
2022/09/26 14:56:31;;;;;;;57.40;2.37;;;;;;;;;;5073454;28;20490;-66
2022/09/26 14:59:13;;;;;;;57.70;2.30;;;;;;;;;;5071081;28;20452;-66
2022/09/26 15:01:42;;;;;;;57.40;2.30;;;;;;;;;;5053344;28;21020;-66
2022/09/26 15:04:13;;;;;;;57.77;2.40;;;;;;;;;;5052995;28;20556;-68
2022/09/26 15:06:43;;;;;;;57.87;2.27;;;;;;;;;;5053511;28;20527;-66
2022/09/26 15:09:10;;;;;;;58.00;2.23;;;;;;;;;;5052880;28;21008;-67
2022/09/26 15:11:42;;;;;;;57.87;2.57;;;;;;;;;;5052622;28;20539;-67
2022/09/26 15:14:15;;;;;;;57.77;2.47;;;;;;;;;;5052862;28;20467;-66